»·PEaware :: QXE2481 KBLI-KSEA

QXE2481 :: KBLI-KSEA

FLIGHT INFORMATION

Flight Status: Arrived
Operator:
Horizon Air
More flights by this operator :: More flights under this callsign
Pilot: David F. (17152)
Aircraft: DEHAVILLAND DASH 8 400
(DH8D)
More flights by this aircraft type
Origin: KBLI Bellingham Intl
United States
Destination: KSEA Seattle-Tacoma Intl
United States
More flights between these airports :: More routes between these airports
Route: +CVV JAWBN JAWBN6
File this flight plan on PilotEdge
Remarks: RMK / SIMBRIEF
Altitude:
(Current/Filed)
13,000ft
Speed:
(Current/Filed)
300kts
Departed: 08-Jun-20 06:03 PM
Arrived: 08-Jun-20 06:33 PM
Distance/Time
Traveled:
81nm/0:30
Distance/Time
To Go:
Arrived

Flight Plot

Page will automatically refresh every two minutes.

Flight plan parsing failed; only flown route is shown


Map Options




Map Legend


Flown Route
Filed Route
Departure Airport
Arrival Airport
Navaid (VOR, NDB)
Fix

Horizontal Profiles

Position Reports

Time Latitude Longitude Heading Altitude Ground
Speed
08-Jun-20 17:22 48.795996 -122.534346 107 161ft 0kts
08-Jun-20 17:23 48.795996 -122.534346 107 161ft 0kts
08-Jun-20 17:24 48.795996 -122.534346 107 161ft 0kts
08-Jun-20 17:25 48.795994 -122.534339 107 161ft 0kts
08-Jun-20 17:26 48.795963 -122.534884 53 161ft 2kts
08-Jun-20 17:27 48.795655 -122.535104 359 162ft 0kts
08-Jun-20 17:28 48.795656 -122.535104 359 162ft 0kts
08-Jun-20 17:29 48.795656 -122.535104 359 162ft 0kts
08-Jun-20 17:30 48.795656 -122.535104 359 162ft 0kts
08-Jun-20 17:31 48.795656 -122.535104 359 162ft 0kts
08-Jun-20 17:32 48.795656 -122.535104 359 162ft 0kts
08-Jun-20 17:33 48.795851 -122.535105 359 162ft 1kts
08-Jun-20 17:34 48.797287 -122.535849 354 162ft 11kts
08-Jun-20 17:35 48.799569 -122.535862 359 167ft 8kts
08-Jun-20 17:36 48.801281 -122.536304 4 167ft 2kts
08-Jun-20 17:37 48.801322 -122.536298 4 167ft 0kts
08-Jun-20 17:38 48.801322 -122.536298 4 167ft 0kts
08-Jun-20 17:39 48.801322 -122.536298 4 167ft 0kts
08-Jun-20 17:40 48.801322 -122.536298 4 167ft 0kts
08-Jun-20 17:41 48.801322 -122.536298 4 167ft 0kts
08-Jun-20 17:42 48.801322 -122.536298 4 167ft 0kts
08-Jun-20 17:43 48.801322 -122.536298 4 167ft 0kts
08-Jun-20 17:44 48.801322 -122.536298 4 167ft 0kts
08-Jun-20 17:45 48.801322 -122.536298 4 167ft 0kts
08-Jun-20 17:46 48.801322 -122.536298 4 167ft 0kts
08-Jun-20 17:47 48.801322 -122.536298 4 167ft 0kts
08-Jun-20 17:48 48.801322 -122.536298 4 167ft 0kts
08-Jun-20 17:49 48.801322 -122.536298 4 167ft 0kts
08-Jun-20 17:50 48.801322 -122.536298 4 167ft 0kts
08-Jun-20 17:51 48.801322 -122.536298 4 167ft 0kts
08-Jun-20 17:52 48.801322 -122.536298 4 167ft 0kts
08-Jun-20 17:53 48.801322 -122.536298 4 167ft 0kts
08-Jun-20 17:54 48.801322 -122.536298 4 167ft 0kts
08-Jun-20 17:55 48.801322 -122.536298 4 167ft 0kts
08-Jun-20 17:56 48.801322 -122.536298 4 167ft 0kts
08-Jun-20 17:57 48.801322 -122.536298 4 167ft 0kts
08-Jun-20 17:58 48.801527 -122.536180 28 167ft 5kts
08-Jun-20 17:59 48.801734 -122.536282 293 167ft 0kts
08-Jun-20 18:00 48.801734 -122.536282 293 167ft 0kts
08-Jun-20 18:01 48.801366 -122.537579 182 169ft 13kts
08-Jun-20 18:02 48.785059 -122.537225 178 410ft 149kts
08-Jun-20 18:03 48.734551 -122.557845 195 2236ft 214kts
08-Jun-20 18:04 48.659374 -122.584692 192 3939ft 260kts
08-Jun-20 18:05 48.588527 -122.608674 193 5508ft 236kts
08-Jun-20 18:06 48.515778 -122.633304 193 6932ft 253kts
08-Jun-20 18:07 48.438244 -122.659455 193 8482ft 261kts
08-Jun-20 18:08 48.358216 -122.686366 193 9890ft 266kts
08-Jun-20 18:09 48.277077 -122.713558 193 10553ft 286kts
08-Jun-20 18:10 48.196723 -122.751265 201 11426ft 287kts
08-Jun-20 18:11 48.120808 -122.793579 202 12456ft 279kts
08-Jun-20 18:12 48.052982 -122.831393 202 13025ft 287kts
08-Jun-20 18:13 47.986190 -122.801468 152 13026ft 314kts
08-Jun-20 18:14 47.922721 -122.744528 151 12996ft 296kts
08-Jun-20 18:15 47.868070 -122.695220 149 12991ft 280kts
08-Jun-20 18:16 47.849790 -122.621848 95 12304ft 302kts
08-Jun-20 18:17 47.844533 -122.529292 95 11284ft 318kts
08-Jun-20 18:18 47.839457 -122.437206 95 10088ft 302kts
08-Jun-20 18:19 47.834656 -122.351246 101 8854ft 291kts
08-Jun-20 18:20 47.799956 -122.299570 135 7551ft 280kts
08-Jun-20 18:21 47.754320 -122.286382 206 6538ft 249kts
08-Jun-20 18:22 47.711086 -122.305555 184 5975ft 224kts
08-Jun-20 18:23 47.667929 -122.305857 182 5028ft 217kts
08-Jun-20 18:24 47.627416 -122.306228 182 4345ft 174kts
08-Jun-20 18:25 47.598736 -122.306009 181 3394ft 160kts
08-Jun-20 18:26 47.569431 -122.304704 184 2751ft 164kts
08-Jun-20 18:27 47.540499 -122.307960 184 2257ft 163kts
08-Jun-20 18:28 47.511751 -122.307464 176 1461ft 156kts
08-Jun-20 18:29 47.487086 -122.307511 178 973ft 136kts
08-Jun-20 18:30 47.469479 -122.307597 182 614ft 106kts
08-Jun-20 18:31 47.454490 -122.307852 180 431ft 69kts
08-Jun-20 18:32 47.448017 -122.307902 181 405ft 27kts
08-Jun-20 18:33 47.446597 -122.306294 11 402ft 10kts
08-Jun-20 18:34 47.447780 -122.305026 91 406ft 12kts
08-Jun-20 18:35 47.446947 -122.302267 110 405ft 12kts
08-Jun-20 18:36 47.447462 -122.300057 50 402ft 5kts
08-Jun-20 18:37 47.449386 -122.301086 310 409ft 12kts
08-Jun-20 18:38 47.450057 -122.304043 254 417ft 10kts
08-Jun-20 18:39 47.447760 -122.305421 179 406ft 11kts
08-Jun-20 18:40 47.445519 -122.305431 180 399ft 7kts
08-Jun-20 18:41 47.444859 -122.305438 180 398ft 1kts
08-Jun-20 18:42 47.444381 -122.305281 125 397ft 7kts
08-Jun-20 18:43 47.444385 -122.304035 70 395ft 0kts
08-Jun-20 18:44 47.444385 -122.304035 70 395ft 0kts
08-Jun-20 18:45 47.444385 -122.304035 70 395ft 0kts
08-Jun-20 18:46 47.444385 -122.304035 70 395ft 0kts

Navigation Log

Ident Type
Flight plan parsing failed, navigation log unavailable